createdAt,value
2019-03-21T00:00:59.659Z,50.58
2019-03-21T00:03:29.479Z,51.60
2019-03-21T00:06:02.624Z,51.71
2019-03-21T00:08:32.667Z,51.81
2019-03-21T00:11:42.930Z,52.43
2019-03-21T00:14:20.941Z,49.98
2019-03-21T00:16:53.025Z,50.15
2019-03-21T00:19:24.130Z,49.40
2019-03-21T00:21:53.819Z,48.97
2019-03-21T00:24:26.801Z,50.13
2019-03-21T00:26:56.497Z,52.51
2019-03-21T00:29:28.057Z,51.74
2019-03-21T00:31:58.846Z,53.38
2019-03-21T00:34:30.270Z,52.67
2019-03-21T00:37:00.005Z,52.43
2019-03-21T00:39:32.963Z,53.46
2019-03-21T00:42:04.797Z,53.41
2019-03-21T00:44:34.538Z,54.57
2019-03-21T00:47:04.159Z,54.54
2019-03-21T00:49:33.781Z,53.78
2019-03-21T00:52:03.740Z,52.09
2019-03-21T00:54:35.190Z,53.06
2019-03-21T00:57:05.314Z,52.18
2019-03-21T00:59:37.985Z,52.28
2019-03-21T01:02:07.580Z,51.39
2019-03-21T01:04:40.192Z,51.16
2019-03-21T01:07:11.590Z,51.68
2019-03-21T01:09:41.696Z,51.49
2019-03-21T01:12:15.782Z,52.25
2019-03-21T01:14:48.168Z,51.67
2019-03-21T01:17:24.220Z,52.56
2019-03-21T01:19:53.928Z,51.54
2019-03-21T01:22:23.593Z,51.69
2019-03-21T01:24:55.814Z,52.19
2019-03-21T01:27:28.556Z,52.75
2019-03-21T01:30:03.288Z,51.90
2019-03-21T01:32:36.889Z,52.01
2019-03-21T01:35:07.202Z,51.97
2019-03-21T01:37:39.988Z,52.06
2019-03-21T01:40:21.724Z,52.45
2019-03-21T01:42:51.532Z,51.62
2019-03-21T01:45:23.975Z,51.60
2019-03-21T01:47:58.186Z,52.13
2019-03-21T01:50:28.416Z,52.19
2019-03-21T01:53:05.194Z,52.23
2019-03-21T01:55:37.905Z,52.23
2019-03-21T01:58:09.533Z,52.16
2019-03-21T02:00:42.725Z,52.19
2019-03-21T02:03:16.420Z,51.91
2019-03-21T02:05:47.169Z,52.74
2019-03-21T02:08:16.901Z,52.89
2019-03-21T02:10:46.784Z,52.58
2019-03-21T02:13:18.187Z,51.25
2019-03-21T02:15:50.873Z,52.36
2019-03-21T02:18:20.519Z,52.75
2019-03-21T02:20:50.194Z,52.81
2019-03-21T02:23:27.973Z,54.23
2019-03-21T02:26:00.737Z,53.11
2019-03-21T02:28:30.409Z,52.00
2019-03-21T02:31:00.174Z,51.80
2019-03-21T02:33:31.703Z,52.71
2019-03-21T02:36:05.409Z,51.98
2019-03-21T02:38:36.920Z,53.44
2019-03-21T02:41:08.713Z,54.83
2019-03-21T02:43:38.988Z,52.87
2019-03-21T02:46:11.814Z,52.80
2019-03-21T02:48:43.259Z,55.55
2019-03-21T02:51:12.935Z,54.28
2019-03-21T02:53:45.094Z,52.97
2019-03-21T02:56:16.408Z,53.25
2019-03-21T02:58:50.538Z,53.42
2019-03-21T03:01:20.238Z,53.35
2019-03-21T03:03:51.173Z,53.78
2019-03-21T03:06:20.835Z,52.55
2019-03-21T03:08:50.649Z,51.62
2019-03-21T03:11:21.687Z,52.40
2019-03-21T03:13:51.727Z,53.75
2019-03-21T03:16:21.981Z,53.48
2019-03-21T03:18:51.639Z,53.82
2019-03-21T03:21:22.921Z,52.26
2019-03-21T03:23:54.024Z,51.93
2019-03-21T03:26:23.709Z,53.10
2019-03-21T03:28:53.343Z,53.75
2019-03-21T03:31:23.032Z,52.46
2019-03-21T03:33:54.066Z,53.96
2019-03-21T03:36:25.760Z,53.60
2019-03-21T03:38:57.027Z,53.12
2019-03-21T03:41:26.692Z,51.60
2019-03-21T03:43:56.345Z,51.91
2019-03-21T03:46:31.292Z,53.47
2019-03-21T03:49:00.952Z,51.95
2019-03-21T03:51:31.827Z,52.22
2019-03-21T03:54:01.516Z,52.25
2019-03-21T03:56:31.521Z,51.29
2019-03-21T03:59:04.623Z,51.90
2019-03-21T04:01:34.232Z,52.17
2019-03-21T04:04:04.005Z,52.45
2019-03-21T04:06:36.559Z,52.15
2019-03-21T04:09:07.684Z,52.48
2019-03-21T04:11:48.987Z,52.73
2019-03-21T04:14:18.701Z,53.44
2019-03-21T04:16:50.038Z,53.00
2019-03-21T04:19:19.659Z,53.37
2019-03-21T04:21:49.422Z,53.02
2019-03-21T04:24:19.362Z,52.96
2019-03-21T04:26:52.302Z,51.97
2019-03-21T04:29:22.410Z,51.47
2019-03-21T04:31:54.364Z,53.04
2019-03-21T04:34:27.607Z,53.51
2019-03-21T04:37:00.634Z,53.75
2019-03-21T04:39:31.745Z,52.67
2019-03-21T04:42:01.829Z,51.95
2019-03-21T04:44:32.967Z,51.77
2019-03-21T04:47:06.450Z,53.95
2019-03-21T04:49:45.109Z,53.28
2019-03-21T04:52:14.753Z,54.19
2019-03-21T04:54:44.541Z,54.44
2019-03-21T04:57:17.467Z,53.61
2019-03-21T04:59:49.901Z,53.13
2019-03-21T05:02:23.701Z,53.28
2019-03-21T05:04:53.458Z,53.03
2019-03-21T05:07:24.833Z,52.63
2019-03-21T05:09:55.145Z,51.91
2019-03-21T05:12:30.383Z,50.72
2019-03-21T05:15:02.001Z,50.00
2019-03-21T05:17:31.647Z,51.56
2019-03-21T05:20:03.848Z,51.37
2019-03-21T05:22:35.991Z,52.89
2019-03-21T05:25:06.794Z,51.96
2019-03-21T05:27:36.566Z,51.67
2019-03-21T05:30:09.293Z,51.43
2019-03-21T05:32:42.101Z,50.70
2019-03-21T05:35:12.170Z,52.89
2019-03-21T05:37:46.390Z,50.56
2019-03-21T05:40:16.724Z,52.25
2019-03-21T05:42:53.275Z,50.94
2019-03-21T05:45:23.738Z,52.04
2019-03-21T05:47:53.360Z,51.79
2019-03-21T05:50:24.063Z,50.98
2019-03-21T05:52:53.761Z,50.57
2019-03-21T05:55:23.783Z,50.59
2019-03-21T05:57:54.984Z,49.42
2019-03-21T06:00:29.137Z,50.02
2019-03-21T06:02:58.852Z,48.81
2019-03-21T06:05:34.246Z,48.63
2019-03-21T06:08:13.179Z,49.96
2019-03-21T06:10:42.872Z,48.71
2019-03-21T06:13:12.503Z,50.76
2019-03-21T06:15:45.319Z,48.49
2019-03-21T06:18:53.733Z,48.02
2019-03-21T06:21:30.215Z,47.32
2019-03-21T06:24:32.070Z,47.32
2019-03-21T06:27:29.937Z,45.88
2019-03-21T06:30:00.926Z,46.13
2019-03-21T06:32:33.573Z,44.92
2019-03-21T06:35:05.356Z,45.11
2019-03-21T06:37:36.638Z,44.92
2019-03-21T06:40:06.703Z,45.61
2019-03-21T06:42:39.156Z,45.37
2019-03-21T06:45:10.411Z,45.45
2019-03-21T06:47:43.875Z,45.25
2019-03-21T06:50:16.047Z,45.00
2019-03-21T06:53:03.298Z,44.45
2019-03-21T06:55:23.156Z,44.37
2019-03-21T06:57:54.508Z,44.04
2019-03-21T07:00:26.946Z,44.06
2019-03-21T07:02:56.577Z,43.97
2019-03-21T07:05:26.824Z,44.01
2019-03-21T07:08:04.679Z,44.00
2019-03-21T07:10:37.288Z,44.06
2019-03-21T07:13:07.242Z,44.37
2019-03-21T07:15:36.985Z,44.88
2019-03-21T07:18:07.038Z,43.71
2019-03-21T07:20:49.727Z,44.38
2019-03-21T07:23:19.347Z,43.87
2019-03-21T07:25:49.176Z,43.31
2019-03-21T07:28:18.977Z,43.16
2019-03-21T07:30:49.912Z,43.30
2019-03-21T07:33:21.115Z,43.25
2019-03-21T07:35:50.997Z,43.95
2019-03-21T07:38:23.955Z,43.64
2019-03-21T07:40:55.300Z,44.35
2019-03-21T07:43:26.777Z,43.25
2019-03-21T07:46:01.588Z,43.44
2019-03-21T07:48:34.367Z,43.42
2019-03-21T07:51:04.279Z,43.75
2019-03-21T07:53:42.293Z,43.38
2019-03-21T07:56:15.022Z,44.16
2019-03-21T07:58:44.997Z,43.94
2019-03-21T08:01:19.254Z,43.55
2019-03-21T08:03:55.400Z,43.91
2019-03-21T08:06:29.156Z,43.52
2019-03-21T08:08:59.096Z,43.40
2019-03-21T08:11:28.857Z,43.17
2019-03-21T08:14:03.747Z,43.03
2019-03-21T08:16:34.690Z,42.72
2019-03-21T08:19:04.600Z,43.21
2019-03-21T08:21:34.793Z,42.56
2019-03-21T08:24:08.656Z,42.42
2019-03-21T08:26:41.357Z,41.82
2019-03-21T08:29:11.237Z,42.58
2019-03-21T08:31:41.108Z,43.15
2019-03-21T08:34:11.529Z,43.04
2019-03-21T08:36:52.759Z,42.21
2019-03-21T08:39:22.487Z,41.67
2019-03-21T08:41:52.157Z,42.20
2019-03-21T08:44:24.612Z,41.80
2019-03-21T08:46:55.672Z,42.08
2019-03-21T08:49:31.026Z,42.48
2019-03-21T08:52:04.992Z,41.85
2019-03-21T08:54:37.128Z,41.93
2019-03-21T08:57:08.602Z,41.81
2019-03-21T08:59:41.274Z,41.72
2019-03-21T09:02:11.539Z,41.45
2019-03-21T09:04:43.670Z,41.54
2019-03-21T09:07:19.831Z,41.31
2019-03-21T09:09:56.286Z,41.35
2019-03-21T09:12:30.805Z,41.05
2019-03-21T09:15:02.927Z,41.11
2019-03-21T09:17:36.454Z,40.89
2019-03-21T09:20:09.246Z,40.80
2019-03-21T09:22:40.265Z,41.08
2019-03-21T09:25:10.275Z,41.19
2019-03-21T09:27:41.534Z,41.22
2019-03-21T09:30:13.426Z,41.21
2019-03-21T09:32:43.401Z,41.34
2019-03-21T09:35:13.244Z,40.48
2019-03-21T09:37:46.422Z,41.16
2019-03-21T09:40:18.272Z,40.84
2019-03-21T09:42:48.103Z,41.43
2019-03-21T09:45:17.918Z,42.17
2019-03-21T09:47:50.486Z,41.67
2019-03-21T09:50:27.572Z,42.01
2019-03-21T09:52:57.323Z,41.96
2019-03-21T09:55:37.187Z,41.70
2019-03-21T09:58:06.188Z,41.58
2019-03-21T10:00:36.965Z,41.09
2019-03-21T10:03:07.365Z,41.96
2019-03-21T10:05:42.977Z,40.36
2019-03-21T10:08:12.787Z,42.06
2019-03-21T10:10:42.423Z,41.17
2019-03-21T10:13:12.417Z,40.46
2019-03-21T10:15:44.917Z,39.45
2019-03-21T10:18:17.207Z,38.86
2019-03-21T10:20:48.024Z,38.29
2019-03-21T10:23:18.118Z,38.69
2019-03-21T10:25:50.987Z,39.08
2019-03-21T10:28:21.802Z,38.48
2019-03-21T10:30:57.121Z,38.24
2019-03-21T10:33:27.888Z,38.10
2019-03-21T10:35:57.753Z,37.73
2019-03-21T10:38:29.690Z,38.27
2019-03-21T10:40:59.293Z,38.21
2019-03-21T10:43:29.016Z,37.96
2019-03-21T10:46:02.666Z,37.53
2019-03-21T10:48:32.855Z,37.33
2019-03-21T10:51:02.640Z,36.63
2019-03-21T10:53:33.415Z,36.37
2019-03-21T10:56:08.171Z,37.07
2019-03-21T10:58:39.554Z,36.50
2019-03-21T11:01:11.814Z,35.92
2019-03-21T11:03:45.987Z,36.26
2019-03-21T11:06:15.901Z,36.53
2019-03-21T11:08:45.617Z,36.79
2019-03-21T11:11:15.859Z,36.28
2019-03-21T11:13:45.524Z,36.42
2019-03-21T11:16:16.769Z,35.96
2019-03-21T11:18:49.352Z,35.95
2019-03-21T11:21:21.861Z,35.66
2019-03-21T11:23:51.925Z,35.64
2019-03-21T11:26:21.944Z,36.00
2019-03-21T11:28:53.149Z,34.77
2019-03-21T11:31:27.034Z,34.67
2019-03-21T11:33:59.913Z,34.40
2019-03-21T11:36:38.250Z,34.09
2019-03-21T11:39:02.846Z,33.79
2019-03-21T11:41:32.695Z,33.70
2019-03-21T11:44:02.475Z,33.89
2019-03-21T11:46:33.379Z,33.40
2019-03-21T11:49:04.122Z,32.78
2019-03-21T11:51:37.955Z,33.02
2019-03-21T11:54:05.205Z,33.43
2019-03-21T11:56:36.296Z,32.58
2019-03-21T11:59:08.589Z,32.10
2019-03-21T12:01:38.259Z,31.19
2019-03-21T12:04:07.940Z,32.13
2019-03-21T12:06:39.418Z,32.11
2019-03-21T12:09:10.563Z,31.69
2019-03-21T12:11:43.212Z,31.13
2019-03-21T12:14:15.022Z,31.01
2019-03-21T12:16:46.646Z,31.57
2019-03-21T12:19:16.382Z,31.81
2019-03-21T12:21:46.651Z,31.49
2019-03-21T12:24:19.498Z,31.74
2019-03-21T12:26:53.076Z,31.15
2019-03-21T12:29:32.063Z,30.45
2019-03-21T12:32:01.672Z,31.13
2019-03-21T12:34:33.173Z,31.25
2019-03-21T12:37:03.052Z,30.78
2019-03-21T12:39:32.819Z,31.49
2019-03-21T12:42:04.941Z,31.40
2019-03-21T12:44:37.534Z,31.24
2019-03-21T12:47:07.114Z,31.28
2019-03-21T12:49:36.999Z,30.99
2019-03-21T12:52:06.604Z,30.32
2019-03-21T12:54:36.275Z,29.80
2019-03-21T12:57:07.394Z,29.44
2019-03-21T12:59:38.399Z,29.57
2019-03-21T13:02:09.529Z,29.41
2019-03-21T13:04:46.709Z,28.90
2019-03-21T13:07:18.410Z,27.60
2019-03-21T13:09:51.001Z,28.25
2019-03-21T13:12:20.624Z,29.55
2019-03-21T13:14:50.277Z,29.30
2019-03-21T13:17:21.838Z,29.56
2019-03-21T13:19:56.453Z,29.18
2019-03-21T13:22:52.842Z,28.60
2019-03-21T13:25:16.534Z,28.38
2019-03-21T13:27:46.556Z,28.66
2019-03-21T13:30:19.268Z,28.88
2019-03-21T13:32:49.201Z,28.79
2019-03-21T13:35:19.032Z,28.86
2019-03-21T13:37:50.598Z,28.83
2019-03-21T13:40:21.883Z,28.08
2019-03-21T13:42:51.495Z,28.40
2019-03-21T13:45:21.585Z,28.22
2019-03-21T13:47:51.334Z,27.47
2019-03-21T13:50:20.996Z,27.48
2019-03-21T13:52:51.003Z,27.87
2019-03-21T13:55:25.333Z,27.09
2019-03-21T13:57:57.923Z,26.63
2019-03-21T14:00:29.395Z,27.12
2019-03-21T14:02:59.035Z,26.77
2019-03-21T14:05:31.121Z,27.10
2019-03-21T14:08:07.157Z,27.13
2019-03-21T14:10:39.095Z,27.77
2019-03-21T14:13:12.270Z,27.93
2019-03-21T14:15:44.351Z,27.18
2019-03-21T14:18:17.044Z,26.95
2019-03-21T14:20:46.829Z,27.42
2019-03-21T14:23:17.583Z,27.52
2019-03-21T14:25:47.331Z,27.44
2019-03-21T14:28:25.378Z,27.51
2019-03-21T14:30:55.248Z,27.33
2019-03-21T14:33:24.987Z,27.09
2019-03-21T14:36:00.258Z,28.03
2019-03-21T14:38:29.998Z,27.39
2019-03-21T14:41:00.206Z,26.97
2019-03-21T14:43:29.878Z,28.01
2019-03-21T14:45:59.584Z,28.02
2019-03-21T14:48:29.580Z,27.87
2019-03-21T14:50:59.253Z,27.33
2019-03-21T14:53:31.365Z,27.51
2019-03-21T14:56:01.094Z,27.43
2019-03-21T14:58:33.991Z,27.11
2019-03-21T15:01:04.988Z,28.35
2019-03-21T15:03:37.799Z,28.14
2019-03-21T15:06:09.920Z,28.10
2019-03-21T15:08:39.632Z,28.30
2019-03-21T15:11:17.076Z,27.83
2019-03-21T15:13:43.872Z,28.00
2019-03-21T15:16:22.776Z,28.34
2019-03-21T15:18:52.433Z,28.68
2019-03-21T15:21:22.281Z,28.57
2019-03-21T15:23:59.335Z,28.23
2019-03-21T15:26:25.047Z,27.99
2019-03-21T15:28:54.729Z,27.85
2019-03-21T15:31:25.981Z,28.04
2019-03-21T15:33:55.784Z,27.83
2019-03-21T15:36:25.638Z,27.52
2019-03-21T15:39:00.237Z,27.96
2019-03-21T15:41:29.915Z,28.49
2019-03-21T15:43:59.620Z,29.31
2019-03-21T15:46:31.425Z,29.92
2019-03-21T15:49:07.210Z,29.09
2019-03-21T15:51:36.878Z,29.15
2019-03-21T15:54:09.615Z,29.33
2019-03-21T15:56:43.220Z,29.48
2019-03-21T15:59:14.005Z,29.48
2019-03-21T16:01:45.550Z,30.15
2019-03-21T16:04:15.168Z,30.60
2019-03-21T16:06:44.958Z,30.10
2019-03-21T16:09:15.606Z,30.50
2019-03-21T16:11:45.313Z,30.61
2019-03-21T16:14:16.686Z,30.27
2019-03-21T16:16:46.429Z,30.81
2019-03-21T16:19:16.054Z,31.17
2019-03-21T16:21:50.148Z,30.54
2019-03-21T16:24:24.465Z,30.76
2019-03-21T16:26:55.032Z,30.72
2019-03-21T16:29:27.519Z,30.94
2019-03-21T16:32:02.411Z,30.98
2019-03-21T16:34:33.977Z,30.96
2019-03-21T16:37:12.099Z,30.54
2019-03-21T16:39:42.990Z,30.73
2019-03-21T16:42:12.689Z,30.87
2019-03-21T16:44:46.223Z,31.37
2019-03-21T16:47:17.213Z,31.37
2019-03-21T16:49:46.900Z,31.48
2019-03-21T16:52:18.789Z,31.50
2019-03-21T16:54:51.175Z,32.01
2019-03-21T16:57:20.864Z,31.71
2019-03-21T16:59:50.626Z,31.91
2019-03-21T17:02:21.575Z,32.09
2019-03-21T17:04:55.032Z,32.17
2019-03-21T17:07:24.806Z,32.26
2019-03-21T17:09:58.130Z,32.55
2019-03-21T17:12:30.807Z,32.77
2019-03-21T17:15:02.219Z,32.84
2019-03-21T17:17:32.025Z,32.76
2019-03-21T17:20:03.923Z,32.55
2019-03-21T17:22:36.337Z,32.75
2019-03-21T17:25:07.393Z,32.89
2019-03-21T17:27:37.261Z,32.68
2019-03-21T17:30:07.784Z,32.70
2019-03-21T17:32:40.408Z,32.81
2019-03-21T17:35:13.346Z,32.92
2019-03-21T17:37:43.041Z,32.91
2019-03-21T17:40:15.199Z,33.22
2019-03-21T17:42:44.837Z,33.35
2019-03-21T17:45:16.719Z,33.18
2019-03-21T17:47:49.501Z,33.14
2019-03-21T17:50:20.023Z,33.19
2019-03-21T17:52:54.784Z,33.50
2019-03-21T17:55:30.956Z,33.72
2019-03-21T17:58:00.631Z,34.01
2019-03-21T18:00:31.667Z,34.14
2019-03-21T18:03:06.885Z,34.32
2019-03-21T18:05:42.112Z,34.66
2019-03-21T18:08:14.629Z,34.78
2019-03-21T18:10:47.081Z,34.80
2019-03-21T18:13:25.866Z,34.99
2019-03-21T18:15:56.736Z,34.70
2019-03-21T18:18:30.604Z,34.59
2019-03-21T18:21:01.895Z,34.33
2019-03-21T18:23:34.963Z,34.20
2019-03-21T18:26:07.812Z,33.89
2019-03-21T18:28:41.565Z,34.16
2019-03-21T18:31:13.166Z,34.28
2019-03-21T18:33:44.139Z,34.55
2019-03-21T18:36:13.731Z,34.73
2019-03-21T18:38:57.443Z,34.60
2019-03-21T18:41:23.642Z,34.42
2019-03-21T18:43:55.083Z,34.25
2019-03-21T18:46:24.709Z,34.34
2019-03-21T18:48:54.466Z,34.58
2019-03-21T18:51:26.120Z,34.43
2019-03-21T18:53:56.739Z,34.45
2019-03-21T18:56:29.502Z,34.51
2019-03-21T18:59:02.790Z,34.37
2019-03-21T19:01:33.486Z,34.24
2019-03-21T19:04:04.322Z,34.32
2019-03-21T19:06:34.152Z,34.66
2019-03-21T19:09:04.718Z,35.04
2019-03-21T19:11:34.554Z,34.68
2019-03-21T19:14:05.273Z,34.59
2019-03-21T19:16:37.302Z,34.60
2019-03-21T19:19:07.111Z,34.61
2019-03-21T19:21:38.106Z,35.92
2019-03-21T19:24:11.541Z,35.07
2019-03-21T19:26:41.284Z,35.52
2019-03-21T19:29:14.877Z,36.39
2019-03-21T19:31:45.271Z,36.48
2019-03-21T19:34:18.394Z,35.58
2019-03-21T19:36:51.809Z,36.10
2019-03-21T19:39:21.963Z,35.50
2019-03-21T19:41:51.619Z,35.44
2019-03-21T19:44:22.185Z,35.34
2019-03-21T19:46:52.810Z,35.28
2019-03-21T19:49:23.674Z,35.40
2019-03-21T19:51:55.164Z,35.52
2019-03-21T19:54:24.877Z,35.22
2019-03-21T19:56:54.499Z,35.33
2019-03-21T19:59:27.294Z,35.32
2019-03-21T20:01:57.159Z,35.47
2019-03-21T20:04:27.862Z,35.63
2019-03-21T20:06:57.903Z,35.54
2019-03-21T20:09:27.833Z,36.76
2019-03-21T20:11:58.918Z,36.93
2019-03-21T20:14:30.354Z,36.79
2019-03-21T20:16:59.972Z,37.06
2019-03-21T20:19:29.616Z,37.42
2019-03-21T20:21:59.327Z,38.48
2019-03-21T20:24:29.083Z,37.27
2019-03-21T20:27:01.624Z,37.51
2019-03-21T20:29:31.727Z,38.47
2019-03-21T20:32:01.472Z,38.79
2019-03-21T20:34:31.465Z,39.24
2019-03-21T20:37:02.223Z,39.69
2019-03-21T20:39:32.088Z,40.63
2019-03-21T20:42:03.178Z,40.19
2019-03-21T20:44:37.110Z,39.79
2019-03-21T20:47:06.712Z,40.30
2019-03-21T20:49:36.589Z,40.38
2019-03-21T20:52:09.341Z,40.63
2019-03-21T20:54:39.324Z,40.33
2019-03-21T20:57:08.956Z,40.47
2019-03-21T20:59:40.863Z,41.40
2019-03-21T21:02:10.786Z,40.91
2019-03-21T21:04:44.600Z,40.94
2019-03-21T21:07:14.273Z,41.26
2019-03-21T21:09:48.823Z,42.39
2019-03-21T21:12:21.171Z,43.36
2019-03-21T21:14:53.898Z,43.98
2019-03-21T21:17:23.572Z,43.00
2019-03-21T21:19:53.278Z,42.84
2019-03-21T21:22:26.279Z,42.99
2019-03-21T21:24:59.218Z,43.82
2019-03-21T21:27:34.672Z,43.34
2019-03-21T21:30:04.858Z,42.93
2019-03-21T21:32:34.632Z,42.76
2019-03-21T21:35:06.681Z,43.68
2019-03-21T21:37:36.837Z,44.13
2019-03-21T21:40:07.100Z,43.73
2019-03-21T21:42:40.076Z,44.08
2019-03-21T21:45:11.103Z,45.56
2019-03-21T21:47:40.817Z,46.08
2019-03-21T21:50:11.253Z,44.99
2019-03-21T21:52:42.141Z,45.42
2019-03-21T21:55:12.203Z,45.46
2019-03-21T21:57:48.030Z,45.41
2019-03-21T22:00:25.084Z,45.39
2019-03-21T22:02:56.125Z,45.26
2019-03-21T22:05:29.237Z,46.01
2019-03-21T22:08:00.242Z,45.41
2019-03-21T22:10:32.330Z,45.44
2019-03-21T22:13:03.791Z,46.31
2019-03-21T22:15:39.331Z,46.20
2019-03-21T22:18:10.325Z,45.54
2019-03-21T22:20:46.520Z,46.15
2019-03-21T22:23:16.145Z,46.35
2019-03-21T22:25:49.413Z,46.81
2019-03-21T22:28:21.807Z,47.14
2019-03-21T22:30:52.767Z,46.80
2019-03-21T22:33:22.390Z,47.27
2019-03-21T22:35:52.036Z,47.11
2019-03-21T22:38:23.738Z,46.09
2019-03-21T22:40:56.187Z,47.77
2019-03-21T22:43:25.874Z,47.06
2019-03-21T22:45:58.578Z,46.93
2019-03-21T22:48:28.406Z,47.48
2019-03-21T22:51:07.575Z,47.08
2019-03-21T22:53:37.294Z,48.27
2019-03-21T22:56:06.916Z,48.29
2019-03-21T22:58:36.719Z,47.12
2019-03-21T23:01:07.537Z,46.51
2019-03-21T23:03:37.136Z,46.85
2019-03-21T23:06:10.267Z,47.38
2019-03-21T23:08:41.833Z,46.37
2019-03-21T23:11:15.407Z,46.67
2019-03-21T23:13:56.930Z,46.22
2019-03-21T23:16:28.593Z,46.19
2019-03-21T23:19:02.787Z,45.80
2019-03-21T23:21:35.545Z,47.63
2019-03-21T23:24:05.144Z,47.46
2019-03-21T23:26:34.810Z,48.69
2019-03-21T23:29:04.505Z,47.28
2019-03-21T23:31:36.912Z,47.48
2019-03-21T23:34:06.696Z,48.18
2019-03-21T23:36:37.967Z,48.87
2019-03-21T23:39:08.278Z,48.74
2019-03-21T23:41:39.547Z,48.00
2019-03-21T23:44:10.559Z,48.35
2019-03-21T23:46:40.178Z,48.33
2019-03-21T23:49:09.797Z,48.21
2019-03-21T23:51:43.721Z,49.39
2019-03-21T23:54:14.338Z,49.33
2019-03-21T23:56:43.958Z,49.13
2019-03-21T23:59:13.745Z,48.14
